createdAt,value
2022-10-17T04:00:48.319Z,1018.45
2022-10-17T04:01:49.640Z,1018.43
2022-10-17T04:02:49.998Z,1018.47
2022-10-17T04:03:50.364Z,1018.51
2022-10-17T04:04:50.734Z,1018.49
2022-10-17T04:05:51.087Z,1018.46
2022-10-17T04:06:51.435Z,1018.50
2022-10-17T04:07:51.827Z,1018.38
2022-10-17T04:08:52.143Z,1018.40
2022-10-17T04:09:52.555Z,1018.41
2022-10-17T04:10:52.883Z,1018.44
2022-10-17T04:11:53.246Z,1018.45
2022-10-17T04:12:53.602Z,1018.40
2022-10-17T04:13:53.991Z,1018.41
2022-10-17T04:14:54.371Z,1018.37
2022-10-17T04:15:54.740Z,1018.38
2022-10-17T04:16:55.074Z,1018.42
2022-10-17T04:17:55.515Z,1018.38
2022-10-17T04:18:55.800Z,1018.39
2022-10-17T04:19:56.151Z,1018.41
2022-10-17T04:20:56.509Z,1018.38
2022-10-17T04:21:56.850Z,1018.39
2022-10-17T04:22:57.247Z,1018.37
2022-10-17T04:23:57.563Z,1018.37
2022-10-17T04:24:58.023Z,1018.41
2022-10-17T04:25:58.303Z,1018.37
2022-10-17T04:26:58.730Z,1018.31
2022-10-17T04:27:59.031Z,1018.27
2022-10-17T04:28:59.380Z,1018.27
2022-10-17T04:29:59.771Z,1018.28
2022-10-17T04:31:00.095Z,1018.26
2022-10-17T04:32:00.459Z,1018.24
2022-10-17T04:33:00.854Z,1018.25
2022-10-17T04:34:01.198Z,1018.23
2022-10-17T04:35:01.629Z,1018.24
2022-10-17T04:36:01.905Z,1018.25
2022-10-17T04:37:02.265Z,1018.20
2022-10-17T04:38:02.648Z,1018.25
2022-10-17T04:39:03.008Z,1018.25
2022-10-17T04:40:03.347Z,1018.27
2022-10-17T04:41:03.715Z,1018.28
2022-10-17T04:42:04.071Z,1018.22
2022-10-17T04:43:04.441Z,1018.21
2022-10-17T04:44:04.815Z,1018.25
2022-10-17T04:45:05.207Z,1018.25
2022-10-17T04:46:05.555Z,1018.19
2022-10-17T04:47:05.870Z,1018.26
2022-10-17T04:48:06.243Z,1018.26
2022-10-17T04:49:06.617Z,1018.24
2022-10-17T04:50:06.985Z,1018.31
2022-10-17T04:51:07.303Z,1018.25
2022-10-17T04:52:07.655Z,1018.17
2022-10-17T04:53:08.008Z,1018.17
2022-10-17T04:54:08.416Z,1018.24
2022-10-17T04:55:08.750Z,1018.24
2022-10-17T04:56:09.099Z,1018.22
2022-10-17T04:57:09.474Z,1018.20
2022-10-17T04:58:09.846Z,1018.17
2022-10-17T04:59:10.208Z,1018.17
2022-10-17T05:00:10.648Z,1018.15
2022-10-17T05:01:11.131Z,1018.17
2022-10-17T05:02:11.309Z,1018.15
2022-10-17T05:03:11.687Z,1018.16
2022-10-17T05:04:12.085Z,1018.10
2022-10-17T05:05:12.553Z,1018.18
2022-10-17T05:06:12.787Z,1018.15
2022-10-17T05:07:13.143Z,1018.18
2022-10-17T05:08:13.500Z,1018.15
2022-10-17T05:09:13.863Z,1018.17
2022-10-17T05:10:14.318Z,1018.14
2022-10-17T05:11:14.626Z,1018.13
2022-10-17T05:12:14.955Z,1018.18
2022-10-17T05:13:15.390Z,1018.15
2022-10-17T05:14:15.676Z,1018.14
2022-10-17T05:15:16.035Z,1018.15
2022-10-17T05:16:16.433Z,1018.16
2022-10-17T05:17:16.790Z,1018.13
2022-10-17T05:18:17.139Z,1018.18
2022-10-17T05:19:17.276Z,1018.15
2022-10-17T05:20:17.454Z,1018.16
2022-10-17T05:21:17.702Z,1018.13
2022-10-17T05:22:17.870Z,1018.16
2022-10-17T05:23:18.173Z,1018.13
2022-10-17T05:24:18.341Z,1018.14
2022-10-17T05:25:18.512Z,1018.13
2022-10-17T05:26:18.667Z,1018.15
2022-10-17T05:27:18.839Z,1018.13
2022-10-17T05:28:19.003Z,1018.12
2022-10-17T05:29:19.166Z,1018.12
2022-10-17T05:30:19.475Z,1018.11
2022-10-17T05:31:19.632Z,1018.07
2022-10-17T05:32:19.804Z,1018.09
2022-10-17T05:33:20.001Z,1018.11
2022-10-17T05:34:20.248Z,1018.11
2022-10-17T05:35:20.354Z,1018.15
2022-10-17T05:36:20.654Z,1018.06
2022-10-17T05:37:20.812Z,1018.08
2022-10-17T05:38:21.101Z,1018.05
2022-10-17T05:39:21.285Z,1018.09
2022-10-17T05:40:21.617Z,1018.11
2022-10-17T05:41:21.765Z,1018.06
2022-10-17T05:42:22.000Z,1018.11
2022-10-17T05:43:22.265Z,1018.04
2022-10-17T05:44:22.508Z,1018.09
2022-10-17T05:45:22.773Z,1018.07
2022-10-17T05:46:22.867Z,1018.09
2022-10-17T05:47:23.047Z,1018.13
2022-10-17T05:48:23.347Z,1018.13
2022-10-17T05:49:33.380Z,1018.14
2022-10-17T05:50:23.840Z,1018.20
2022-10-17T05:51:24.115Z,1018.21
2022-10-17T05:52:24.331Z,1018.18
2022-10-17T05:53:24.474Z,1018.16
2022-10-17T05:54:24.666Z,1018.13
2022-10-17T05:55:24.904Z,1018.12
2022-10-17T05:56:25.026Z,1018.08
2022-10-17T05:57:25.214Z,1018.06
2022-10-17T05:58:45.571Z,1018.07
2022-10-17T05:59:25.598Z,1018.04
2022-10-17T06:00:25.790Z,1018.09
2022-10-17T06:01:25.959Z,1018.07
2022-10-17T06:02:26.264Z,1018.08
2022-10-17T06:03:26.314Z,1018.12
2022-10-17T06:04:26.660Z,1018.09
2022-10-17T06:05:26.715Z,1018.07
2022-10-17T06:06:26.912Z,1018.08
2022-10-17T06:07:27.075Z,1018.11
2022-10-17T06:08:27.240Z,1018.06
2022-10-17T06:09:27.418Z,1018.07
2022-10-17T06:10:27.636Z,1018.06
2022-10-17T06:11:27.803Z,1018.06
2022-10-17T06:12:28.220Z,1018.04
2022-10-17T06:13:28.132Z,1018.02
2022-10-17T06:14:28.303Z,1017.99
2022-10-17T06:15:28.512Z,1018.03
2022-10-17T06:16:28.647Z,1017.99
2022-10-17T06:17:28.834Z,1018.03
2022-10-17T06:18:29.021Z,1017.96
2022-10-17T06:19:29.182Z,1017.93
2022-10-17T06:20:29.378Z,1017.90
2022-10-17T06:21:29.656Z,1017.93
2022-10-17T06:22:30.180Z,1017.90
2022-10-17T06:23:30.000Z,1017.88
2022-10-17T06:24:30.161Z,1017.89
2022-10-17T06:25:30.370Z,1017.94
2022-10-17T06:26:30.535Z,1017.92
2022-10-17T06:27:30.716Z,1017.97
2022-10-17T06:28:30.953Z,1017.98
2022-10-17T06:29:31.153Z,1017.97
2022-10-17T06:30:31.309Z,1017.91
2022-10-17T06:31:31.499Z,1017.88
2022-10-17T06:32:32.074Z,1017.89
2022-10-17T06:33:31.823Z,1017.89
2022-10-17T06:34:32.034Z,1017.89
2022-10-17T06:35:32.194Z,1017.78
2022-10-17T06:36:32.376Z,1017.88
2022-10-17T06:37:35.562Z,1017.84
2022-10-17T06:38:32.765Z,1017.77
2022-10-17T06:39:32.945Z,1017.79
2022-10-17T06:40:33.156Z,1017.75
2022-10-17T06:41:33.328Z,1017.76
2022-10-17T06:42:33.488Z,1017.76
2022-10-17T06:43:33.749Z,1017.77
2022-10-17T06:44:33.870Z,1017.77
2022-10-17T06:45:34.113Z,1017.74
2022-10-17T06:46:34.327Z,1017.78
2022-10-17T06:47:34.413Z,1017.77
2022-10-17T06:48:34.639Z,1017.78
2022-10-17T06:49:34.801Z,1017.80
2022-10-17T06:50:35.052Z,1017.79
2022-10-17T06:51:35.198Z,1017.77
2022-10-17T06:52:35.389Z,1017.78
2022-10-17T06:53:35.588Z,1017.79
2022-10-17T06:54:35.809Z,1017.81
2022-10-17T06:55:36.022Z,1017.82
2022-10-17T06:56:36.166Z,1017.84
2022-10-17T06:57:36.338Z,1017.86
2022-10-17T06:58:36.500Z,1017.79
2022-10-17T06:59:36.706Z,1017.73
2022-10-17T07:00:37.162Z,1017.76
2022-10-17T07:01:37.421Z,1017.72
2022-10-17T07:02:37.235Z,1017.71
2022-10-17T07:03:37.435Z,1017.80
2022-10-17T07:04:37.619Z,1017.83
2022-10-17T07:05:37.838Z,1017.86
2022-10-17T07:06:38.005Z,1017.78
2022-10-17T07:07:40.187Z,1017.82
2022-10-17T07:08:38.422Z,1017.85
2022-10-17T07:09:38.599Z,1017.85
2022-10-17T07:10:38.783Z,1017.91
2022-10-17T07:11:38.976Z,1017.99
2022-10-17T07:12:39.121Z,1018.12
2022-10-17T07:13:39.528Z,1018.11
2022-10-17T07:14:39.554Z,1018.17
2022-10-17T07:15:39.699Z,1018.20
2022-10-17T07:16:39.889Z,1018.15
2022-10-17T07:17:40.095Z,1018.25
2022-10-17T07:18:40.298Z,1018.26
2022-10-17T07:19:40.516Z,1018.30
2022-10-17T07:20:40.719Z,1018.27
2022-10-17T07:21:40.879Z,1018.24
2022-10-17T07:22:41.082Z,1018.14
2022-10-17T07:23:41.278Z,1018.10
2022-10-17T07:24:41.505Z,1018.01
2022-10-17T07:25:41.682Z,1018.07
2022-10-17T07:26:41.845Z,1018.08
2022-10-17T07:27:42.055Z,1018.14
2022-10-17T07:28:42.302Z,1018.16
2022-10-17T07:29:42.492Z,1018.21
2022-10-17T07:30:42.709Z,1018.20
2022-10-17T07:31:42.853Z,1018.20
2022-10-17T07:32:43.017Z,1018.26
2022-10-17T07:33:43.423Z,1018.25
2022-10-17T07:34:43.379Z,1018.32
2022-10-17T07:35:43.601Z,1018.31
2022-10-17T07:36:43.764Z,1018.27
2022-10-17T07:37:43.970Z,1018.28
2022-10-17T07:38:44.169Z,1018.23
2022-10-17T07:39:44.391Z,1018.24
2022-10-17T07:40:44.555Z,1018.26
2022-10-17T07:41:44.721Z,1018.27
2022-10-17T07:42:44.957Z,1018.28
2022-10-17T07:43:45.112Z,1018.28
2022-10-17T07:44:45.306Z,1018.32
2022-10-17T07:45:45.505Z,1018.32
2022-10-17T07:46:45.668Z,1018.38
2022-10-17T07:47:45.879Z,1018.23
2022-10-17T07:48:46.057Z,1018.27
2022-10-17T07:49:46.280Z,1018.30
2022-10-17T07:50:46.434Z,1018.23
2022-10-17T07:52:46.794Z,1018.32
2022-10-17T07:53:48.822Z,1018.18
2022-10-17T07:54:47.184Z,1018.23
2022-10-17T07:55:47.363Z,1018.25
2022-10-17T07:56:47.558Z,1018.21
2022-10-17T07:57:47.745Z,1018.18
2022-10-17T07:58:47.981Z,1018.19
2022-10-17T07:59:48.111Z,1018.17
2022-10-17T08:00:48.602Z,1018.10
2022-10-17T08:01:48.476Z,1018.14
2022-10-17T08:02:48.722Z,1018.08
2022-10-17T08:03:48.863Z,1018.14
2022-10-17T08:04:49.020Z,1018.14
2022-10-17T08:05:49.237Z,1018.17
2022-10-17T08:06:53.444Z,1018.14
2022-10-17T08:07:49.597Z,1018.13
2022-10-17T08:08:49.786Z,1018.19
2022-10-17T08:09:50.000Z,1018.21
2022-10-17T08:10:50.187Z,1018.21
2022-10-17T08:11:50.406Z,1018.18
2022-10-17T08:12:50.519Z,1018.09
2022-10-17T08:13:50.738Z,1018.05
2022-10-17T08:14:50.929Z,1018.08
2022-10-17T08:15:51.156Z,1018.08
2022-10-17T08:16:51.285Z,1018.02
2022-10-17T08:17:51.480Z,1018.04
2022-10-17T08:18:51.654Z,1018.13
2022-10-17T08:19:51.871Z,1018.03
2022-10-17T08:20:54.623Z,1017.98
2022-10-17T08:21:52.230Z,1018.02
2022-10-17T08:22:52.429Z,1017.98
2022-10-17T08:23:52.630Z,1017.94
2022-10-17T08:24:52.806Z,1017.99
2022-10-17T08:25:53.040Z,1017.97
2022-10-17T08:26:53.199Z,1017.97
2022-10-17T08:27:53.481Z,1017.90
2022-10-17T08:28:53.633Z,1017.87
2022-10-17T08:29:53.761Z,1017.87
2022-10-17T08:30:53.980Z,1017.80
2022-10-17T08:31:58.614Z,1017.85
2022-10-17T08:32:54.356Z,1017.82
2022-10-17T08:33:54.514Z,1017.90
2022-10-17T08:34:54.682Z,1017.85
2022-10-17T08:35:54.883Z,1017.88
2022-10-17T08:36:55.045Z,1017.82
2022-10-17T08:37:55.247Z,1017.75
2022-10-17T08:38:55.470Z,1017.75
2022-10-17T08:39:55.637Z,1017.67
2022-10-17T08:40:55.858Z,1017.70
2022-10-17T08:41:56.022Z,1017.69
2022-10-17T08:42:56.223Z,1017.70
2022-10-17T08:43:56.436Z,1017.83
2022-10-17T08:44:56.625Z,1017.89
2022-10-17T08:45:56.850Z,1017.90
2022-10-17T08:46:57.024Z,1017.99
2022-10-17T08:47:57.227Z,1017.98
2022-10-17T08:48:57.383Z,1017.99
2022-10-17T08:49:57.783Z,1018.03
2022-10-17T08:50:57.778Z,1018.04
2022-10-17T08:51:57.956Z,1018.10
2022-10-17T08:52:58.131Z,1018.06
2022-10-17T08:53:58.345Z,1018.08
2022-10-17T08:54:58.551Z,1018.08
2022-10-17T08:55:58.779Z,1018.09
2022-10-17T08:56:58.950Z,1017.96
2022-10-17T08:57:59.121Z,1017.96
2022-10-17T08:58:59.312Z,1017.87
2022-10-17T08:59:59.513Z,1017.82
2022-10-17T09:00:59.734Z,1017.72
2022-10-17T09:01:59.898Z,1017.81
2022-10-17T09:03:00.190Z,1017.89
2022-10-17T09:04:00.258Z,1017.80
2022-10-17T09:05:00.432Z,1017.78
2022-10-17T09:06:00.648Z,1017.77
2022-10-17T09:07:00.815Z,1017.78
2022-10-17T09:08:01.029Z,1017.79
2022-10-17T09:09:01.192Z,1017.83
2022-10-17T09:10:01.401Z,1017.88
2022-10-17T09:11:01.601Z,1017.82
2022-10-17T09:12:01.788Z,1017.87
2022-10-17T09:13:07.042Z,1017.90
2022-10-17T09:14:02.162Z,1017.85
2022-10-17T09:15:02.348Z,1017.89
2022-10-17T09:16:02.586Z,1017.90
2022-10-17T09:17:02.744Z,1017.93
2022-10-17T09:18:02.954Z,1017.98
2022-10-17T09:19:03.141Z,1017.91
2022-10-17T09:20:03.358Z,1017.97
2022-10-17T09:21:03.556Z,1018.04
2022-10-17T09:22:03.749Z,1018.00
2022-10-17T09:23:03.965Z,1018.01
2022-10-17T09:24:09.481Z,1018.01
2022-10-17T09:25:04.291Z,1018.01
2022-10-17T09:26:04.508Z,1018.07
2022-10-17T09:27:04.699Z,1018.02
2022-10-17T09:28:04.893Z,1018.00
2022-10-17T09:29:05.107Z,1017.97
2022-10-17T09:30:07.140Z,1017.99
2022-10-17T09:31:05.432Z,1018.03
2022-10-17T09:32:05.598Z,1017.99
2022-10-17T09:33:05.815Z,1017.99
2022-10-17T09:34:05.985Z,1018.01
2022-10-17T09:35:06.166Z,1017.97
2022-10-17T09:36:06.342Z,1017.97
2022-10-17T09:37:06.509Z,1017.90
2022-10-17T09:38:06.724Z,1017.91
2022-10-17T09:39:06.888Z,1017.95
2022-10-17T09:40:07.059Z,1017.94
2022-10-17T09:41:25.573Z,1017.94
2022-10-17T09:42:07.399Z,1017.95
2022-10-17T09:43:07.572Z,1017.95
2022-10-17T09:44:07.790Z,1017.98
2022-10-17T09:45:07.960Z,1017.94
2022-10-17T09:46:08.152Z,1017.97
2022-10-17T09:47:08.371Z,1017.98
2022-10-17T09:48:08.499Z,1017.92
2022-10-17T09:49:10.276Z,1017.97
2022-10-17T09:50:08.907Z,1017.97
2022-10-17T09:51:21.942Z,1017.99
2022-10-17T09:52:09.300Z,1018.03
2022-10-17T09:53:09.452Z,1018.05
2022-10-17T09:54:09.636Z,1018.08
2022-10-17T09:55:09.878Z,1018.00
2022-10-17T09:56:10.025Z,1018.04
2022-10-17T09:57:10.233Z,1018.05
2022-10-17T09:58:10.368Z,1018.02
2022-10-17T09:59:13.798Z,1018.00
2022-10-17T10:00:10.803Z,1018.05
2022-10-17T10:01:11.015Z,1017.95
2022-10-17T10:02:11.125Z,1017.99
2022-10-17T10:03:11.320Z,1017.99
2022-10-17T10:04:11.532Z,1018.00
2022-10-17T10:05:11.728Z,1018.00
2022-10-17T10:06:11.957Z,1018.03
2022-10-17T10:07:12.110Z,1018.03
2022-10-17T10:08:12.315Z,1018.06
2022-10-17T10:09:12.613Z,1018.14
2022-10-17T10:10:12.713Z,1018.15
2022-10-17T10:11:13.965Z,1018.10
2022-10-17T10:12:13.071Z,1018.10
2022-10-17T10:13:13.233Z,1018.08
2022-10-17T10:14:13.444Z,1018.07
2022-10-17T10:15:13.649Z,1018.12
2022-10-17T10:16:13.890Z,1018.07
2022-10-17T10:17:14.048Z,1018.08
2022-10-17T10:18:14.276Z,1018.10
2022-10-17T10:19:14.443Z,1018.16
2022-10-17T10:20:14.619Z,1018.18
2022-10-17T10:21:14.803Z,1018.17
2022-10-17T10:22:14.978Z,1018.19
2022-10-17T10:23:15.181Z,1018.14
2022-10-17T10:24:15.354Z,1018.16
2022-10-17T10:25:15.537Z,1018.13
2022-10-17T10:26:18.933Z,1018.16
2022-10-17T10:27:15.940Z,1018.15
2022-10-17T10:28:16.091Z,1018.15
2022-10-17T10:29:16.290Z,1018.11
2022-10-17T10:30:16.529Z,1018.13
2022-10-17T10:31:16.703Z,1018.18
2022-10-17T10:32:16.892Z,1018.15
2022-10-17T10:33:17.090Z,1018.22
2022-10-17T10:34:17.237Z,1018.22
2022-10-17T10:35:17.413Z,1018.20
2022-10-17T10:36:17.634Z,1018.24
2022-10-17T10:37:17.803Z,1018.23
2022-10-17T10:38:18.034Z,1018.23
2022-10-17T10:39:18.212Z,1018.23
2022-10-17T10:40:18.402Z,1018.21
2022-10-17T10:41:18.576Z,1018.27
2022-10-17T10:42:18.745Z,1018.22
2022-10-17T10:43:18.952Z,1018.29
2022-10-17T10:44:19.150Z,1018.29
2022-10-17T10:45:42.851Z,1018.34
2022-10-17T10:46:19.566Z,1018.35
2022-10-17T10:47:19.741Z,1018.30
2022-10-17T10:48:19.932Z,1018.34
2022-10-17T10:49:20.127Z,1018.42
2022-10-17T10:50:20.330Z,1018.41
2022-10-17T10:51:20.699Z,1018.41
2022-10-17T10:52:20.735Z,1018.40
2022-10-17T10:53:20.955Z,1018.44
2022-10-17T10:54:21.139Z,1018.45
2022-10-17T10:55:21.333Z,1018.43
2022-10-17T10:56:21.562Z,1018.41
2022-10-17T10:57:21.722Z,1018.40
2022-10-17T10:58:21.922Z,1018.36
2022-10-17T10:59:22.084Z,1018.38
2022-10-17T11:00:22.326Z,1018.40
2022-10-17T11:01:22.512Z,1018.34
2022-10-17T11:02:22.672Z,1018.35
2022-10-17T11:03:22.890Z,1018.36
2022-10-17T11:04:23.051Z,1018.40
2022-10-17T11:05:23.213Z,1018.41
2022-10-17T11:06:23.475Z,1018.41
2022-10-17T11:07:23.628Z,1018.37
2022-10-17T11:08:23.816Z,1018.47
2022-10-17T11:09:23.994Z,1018.50
2022-10-17T11:10:24.207Z,1018.54
2022-10-17T11:11:24.431Z,1018.44
2022-10-17T11:12:24.603Z,1018.49
2022-10-17T11:13:24.754Z,1018.50
2022-10-17T11:14:24.956Z,1018.48
2022-10-17T11:15:25.150Z,1018.54
2022-10-17T11:16:25.344Z,1018.52
2022-10-17T11:17:25.521Z,1018.47
2022-10-17T11:18:25.814Z,1018.48
2022-10-17T11:19:25.865Z,1018.47
2022-10-17T11:20:26.086Z,1018.48
2022-10-17T11:21:26.249Z,1018.54
2022-10-17T11:22:29.039Z,1018.47
2022-10-17T11:23:26.598Z,1018.50
2022-10-17T11:24:26.795Z,1018.50
2022-10-17T11:25:26.967Z,1018.48
2022-10-17T11:26:27.200Z,1018.54
2022-10-17T11:27:27.360Z,1018.51
2022-10-17T11:28:27.594Z,1018.50
2022-10-17T11:29:27.760Z,1018.48
2022-10-17T11:30:27.977Z,1018.46
2022-10-17T11:31:28.156Z,1018.52
2022-10-17T11:32:28.596Z,1018.52
2022-10-17T11:33:28.508Z,1018.49
2022-10-17T11:34:28.723Z,1018.49
2022-10-17T11:35:28.929Z,1018.49
2022-10-17T11:36:29.100Z,1018.39
2022-10-17T11:37:29.272Z,1018.37
2022-10-17T11:38:29.426Z,1018.36
2022-10-17T11:39:29.643Z,1018.34
2022-10-17T11:40:29.813Z,1018.34
2022-10-17T11:41:29.987Z,1018.37
2022-10-17T11:42:30.533Z,1018.42
2022-10-17T11:43:30.365Z,1018.36
2022-10-17T11:44:30.566Z,1018.46
2022-10-17T11:45:30.693Z,1018.47
2022-10-17T11:46:30.930Z,1018.41
2022-10-17T11:47:31.116Z,1018.47
2022-10-17T11:48:31.262Z,1018.56
2022-10-17T11:49:33.979Z,1018.59
2022-10-17T11:52:51.789Z,1018.70
2022-10-17T11:53:32.237Z,1018.68
2022-10-17T11:54:32.425Z,1018.71
2022-10-17T11:55:32.581Z,1018.71
2022-10-17T11:56:32.813Z,1018.78
2022-10-17T11:57:32.987Z,1018.80
2022-10-17T11:58:33.179Z,1018.78
2022-10-17T11:59:33.382Z,1018.88
2022-10-17T12:00:35.775Z,1018.95
2022-10-17T12:01:33.809Z,1019.02
2022-10-17T12:02:33.936Z,1019.00
2022-10-17T12:03:34.215Z,1018.85
2022-10-17T12:04:34.424Z,1018.89
2022-10-17T12:05:34.505Z,1018.97
2022-10-17T12:06:34.741Z,1019.06
2022-10-17T12:07:34.916Z,1019.05
2022-10-17T12:08:35.100Z,1018.97
2022-10-17T12:09:35.269Z,1018.89
2022-10-17T12:10:35.466Z,1018.81
2022-10-17T12:11:35.691Z,1018.87
2022-10-17T12:12:35.898Z,1019.02
2022-10-17T12:13:36.042Z,1019.11
2022-10-17T12:14:36.229Z,1019.09
2022-10-17T12:15:36.407Z,1019.10
2022-10-17T12:16:36.646Z,1019.06
2022-10-17T12:17:36.805Z,1019.05
2022-10-17T12:18:36.960Z,1019.07
2022-10-17T12:19:38.017Z,1019.07
2022-10-17T12:20:37.378Z,1019.03
2022-10-17T12:21:40.402Z,1019.00
2022-10-17T12:22:38.021Z,1019.00
2022-10-17T12:23:38.470Z,1019.00
2022-10-17T12:24:38.303Z,1018.97
2022-10-17T12:25:38.351Z,1019.00
2022-10-17T12:26:38.489Z,1018.93
2022-10-17T12:27:38.692Z,1018.96
2022-10-17T12:28:39.512Z,1018.92
2022-10-17T12:29:39.026Z,1018.95
2022-10-17T12:30:39.201Z,1018.93
2022-10-17T12:31:39.416Z,1018.95
2022-10-17T12:33:00.588Z,1018.98
2022-10-17T12:33:39.828Z,1018.95
2022-10-17T12:34:39.982Z,1019.04
2022-10-17T12:35:40.185Z,1019.03
2022-10-17T12:36:40.400Z,1018.97
2022-10-17T12:37:40.584Z,1018.96
2022-10-17T12:38:40.813Z,1018.98
2022-10-17T12:39:40.951Z,1019.04
2022-10-17T12:40:42.229Z,1019.06
2022-10-17T12:41:41.385Z,1019.09
2022-10-17T12:42:41.571Z,1019.16
2022-10-17T12:43:44.676Z,1019.14
2022-10-17T12:44:41.924Z,1019.14
2022-10-17T12:45:42.126Z,1019.22
2022-10-17T12:46:42.362Z,1019.21
2022-10-17T12:47:42.652Z,1019.22
2022-10-17T12:48:42.692Z,1019.28
2022-10-17T12:49:42.879Z,1019.28
2022-10-17T12:50:43.078Z,1019.23
2022-10-17T12:51:43.226Z,1019.29
2022-10-17T12:52:43.544Z,1019.27
2022-10-17T12:53:43.695Z,1019.27
2022-10-17T12:54:53.539Z,1019.28
2022-10-17T12:55:44.065Z,1019.28
2022-10-17T12:56:44.221Z,1019.35
2022-10-17T12:57:44.510Z,1019.54
2022-10-17T12:58:44.679Z,1019.70
2022-10-17T12:59:44.863Z,1020.00
2022-10-17T13:00:59.572Z,1020.26
2022-10-17T13:01:46.266Z,1020.40
2022-10-17T13:02:45.389Z,1020.28
2022-10-17T13:03:45.553Z,1020.09
2022-10-17T13:04:45.736Z,1019.92
2022-10-17T13:05:45.922Z,1019.76
2022-10-17T13:06:46.113Z,1019.51
2022-10-17T13:07:46.320Z,1019.36
2022-10-17T13:08:49.776Z,1019.14
2022-10-17T13:09:46.751Z,1019.10
2022-10-17T13:10:49.078Z,1019.27
2022-10-17T13:11:47.065Z,1019.39
2022-10-17T13:12:47.238Z,1019.40
2022-10-17T13:13:47.482Z,1019.49
2022-10-17T13:14:47.629Z,1019.49
2022-10-17T13:15:47.843Z,1019.56
2022-10-17T13:16:48.058Z,1019.53
2022-10-17T13:17:48.235Z,1019.46
2022-10-17T13:18:48.391Z,1019.35
2022-10-17T13:19:48.595Z,1019.32
2022-10-17T13:20:48.802Z,1019.34
2022-10-17T13:21:49.020Z,1019.33
2022-10-17T13:22:49.192Z,1019.30
2022-10-17T13:23:49.379Z,1019.20
2022-10-17T13:24:49.660Z,1019.16
2022-10-17T13:25:49.735Z,1019.19
2022-10-17T13:26:49.938Z,1019.27
2022-10-17T13:27:50.137Z,1019.33
2022-10-17T13:28:50.426Z,1019.38
2022-10-17T13:29:50.483Z,1019.39
2022-10-17T13:30:52.060Z,1019.49
2022-10-17T13:31:50.873Z,1019.58
2022-10-17T13:32:51.036Z,1019.52
2022-10-17T13:33:51.215Z,1019.54
2022-10-17T13:34:51.393Z,1019.55
2022-10-17T13:36:06.941Z,1019.53
2022-10-17T13:36:51.804Z,1019.53
2022-10-17T13:37:54.067Z,1019.62
2022-10-17T13:38:52.223Z,1019.68
2022-10-17T13:39:55.543Z,1019.66
2022-10-17T13:40:58.017Z,1019.71
2022-10-17T13:41:52.717Z,1019.73
2022-10-17T13:42:52.877Z,1019.69
2022-10-17T13:43:53.066Z,1019.64
2022-10-17T13:44:53.245Z,1019.72
2022-10-17T13:45:53.476Z,1019.76
2022-10-17T13:46:53.655Z,1019.70
2022-10-17T13:47:53.826Z,1019.63
2022-10-17T13:48:54.008Z,1019.67
2022-10-17T13:49:55.513Z,1019.64
2022-10-17T13:50:54.388Z,1019.62
2022-10-17T13:51:54.590Z,1019.61
2022-10-17T13:52:54.735Z,1019.65
2022-10-17T13:53:54.953Z,1019.73
2022-10-17T13:54:55.099Z,1019.62
2022-10-17T13:56:09.489Z,1019.54
2022-10-17T13:57:55.714Z,1019.61
2022-10-17T13:58:55.871Z,1019.58
2022-10-17T13:59:56.058Z,1019.55
2022-10-17T14:00:56.333Z,1019.57
2022-10-17T14:01:56.478Z,1019.51
2022-10-17T14:02:56.599Z,1019.47
2022-10-17T14:04:08.361Z,1019.51
2022-10-17T14:05:16.112Z,1019.47
2022-10-17T14:05:57.257Z,1019.46
2022-10-17T14:06:57.454Z,1019.43
2022-10-17T14:08:16.906Z,1019.45
2022-10-17T14:08:57.805Z,1019.50
2022-10-17T14:09:57.996Z,1019.51
2022-10-17T14:10:58.178Z,1019.51
2022-10-17T14:11:58.366Z,1019.51
2022-10-17T14:12:58.557Z,1019.52
2022-10-17T14:13:58.709Z,1019.49
2022-10-17T14:15:10.112Z,1019.52
2022-10-17T14:15:59.128Z,1019.50
2022-10-17T14:16:59.326Z,1019.52
2022-10-17T14:18:00.247Z,1019.50
2022-10-17T14:18:59.694Z,1019.50
2022-10-17T14:20:16.415Z,1019.45
2022-10-17T14:22:00.305Z,1019.64
2022-10-17T14:24:00.723Z,1019.70
2022-10-17T14:25:02.611Z,1019.67
2022-10-17T14:26:01.045Z,1019.70
2022-10-17T14:27:01.195Z,1019.72
2022-10-17T14:28:01.364Z,1019.72
2022-10-17T14:29:01.585Z,1019.67
2022-10-17T14:30:01.728Z,1019.69
2022-10-17T14:31:01.895Z,1019.80
2022-10-17T14:32:02.134Z,1019.81
2022-10-17T14:33:02.299Z,1019.84
2022-10-17T14:34:02.536Z,1019.85
2022-10-17T14:35:18.765Z,1019.95
2022-10-17T14:36:02.903Z,1019.93
2022-10-17T14:37:03.078Z,1020.03
2022-10-17T14:38:03.259Z,1020.01
2022-10-17T14:39:03.457Z,1020.05
2022-10-17T14:40:03.640Z,1020.14
2022-10-17T14:41:30.581Z,1020.07
2022-10-17T14:42:04.643Z,1020.15
2022-10-17T14:43:04.179Z,1020.18
2022-10-17T14:44:04.378Z,1020.17
2022-10-17T14:45:04.583Z,1020.23
2022-10-17T14:46:04.756Z,1020.24
2022-10-17T14:47:18.625Z,1020.26
2022-10-17T14:48:05.167Z,1020.30
2022-10-17T14:49:05.312Z,1020.32
2022-10-17T14:50:05.503Z,1020.35
2022-10-17T14:51:05.684Z,1020.36
2022-10-17T14:52:07.796Z,1020.40
2022-10-17T14:53:06.030Z,1020.38
2022-10-17T14:54:06.250Z,1020.38
2022-10-17T14:55:06.436Z,1020.35
2022-10-17T14:56:06.606Z,1020.42
2022-10-17T14:57:06.777Z,1020.45
2022-10-17T14:58:06.965Z,1020.46
2022-10-17T14:59:11.753Z,1020.47
2022-10-17T15:00:07.290Z,1020.45
2022-10-17T15:01:07.458Z,1020.53
2022-10-17T15:02:07.671Z,1020.53
2022-10-17T15:03:07.874Z,1020.55
2022-10-17T15:04:08.005Z,1020.55
2022-10-17T15:05:12.866Z,1020.50
2022-10-17T15:06:08.344Z,1020.60
2022-10-17T15:07:08.550Z,1020.57
2022-10-17T15:08:08.782Z,1020.60
2022-10-17T15:09:08.914Z,1020.61
2022-10-17T15:10:09.108Z,1020.67
2022-10-17T15:11:09.285Z,1020.65
2022-10-17T15:12:09.573Z,1020.65
2022-10-17T15:13:27.670Z,1020.68
2022-10-17T15:14:09.920Z,1020.72
2022-10-17T15:15:10.071Z,1020.69
2022-10-17T15:16:10.279Z,1020.70
2022-10-17T15:17:10.498Z,1020.68
2022-10-17T15:18:10.645Z,1020.69
2022-10-17T15:19:10.833Z,1020.69
2022-10-17T15:20:10.997Z,1020.71
2022-10-17T15:21:25.641Z,1020.75
2022-10-17T15:22:11.395Z,1020.74
2022-10-17T15:23:11.543Z,1020.81
2022-10-17T15:24:11.725Z,1020.76
2022-10-17T15:25:11.892Z,1020.81
2022-10-17T15:26:12.068Z,1020.82
2022-10-17T15:27:12.265Z,1020.82
2022-10-17T15:28:12.436Z,1020.79
2022-10-17T15:29:12.633Z,1020.74
2022-10-17T15:30:12.939Z,1020.78
2022-10-17T15:31:12.971Z,1020.84
2022-10-17T15:32:13.163Z,1020.82
2022-10-17T15:33:13.346Z,1020.82
2022-10-17T15:34:13.645Z,1020.84
2022-10-17T15:35:13.785Z,1020.81
2022-10-17T15:36:14.027Z,1020.79
2022-10-17T15:37:14.313Z,1020.80
2022-10-17T15:38:14.465Z,1020.86
2022-10-17T15:39:14.641Z,1020.87
2022-10-17T15:40:14.796Z,1020.81
2022-10-17T15:41:14.961Z,1020.84
2022-10-17T15:42:15.165Z,1020.89
2022-10-17T15:43:19.691Z,1020.87
2022-10-17T15:44:15.560Z,1020.87
2022-10-17T15:45:15.714Z,1020.86
2022-10-17T15:46:15.914Z,1020.83
2022-10-17T15:47:16.099Z,1020.85
2022-10-17T15:48:16.284Z,1020.85
2022-10-17T15:49:16.450Z,1020.85
2022-10-17T15:50:16.622Z,1020.83
2022-10-17T15:51:16.800Z,1020.87
2022-10-17T15:52:17.014Z,1020.85
2022-10-17T15:53:17.158Z,1020.88
2022-10-17T15:54:17.334Z,1020.90
2022-10-17T15:55:17.485Z,1020.97
2022-10-17T15:56:17.668Z,1021.05
2022-10-17T15:57:17.844Z,1021.03
2022-10-17T15:58:18.023Z,1021.04
2022-10-17T15:59:18.221Z,1021.03
2022-10-17T16:00:18.394Z,1021.00
2022-10-17T16:01:18.611Z,1021.01
2022-10-17T16:02:18.762Z,1021.04
2022-10-17T16:03:19.021Z,1021.01
2022-10-17T16:04:19.205Z,1021.04
2022-10-17T16:05:19.389Z,1021.05
2022-10-17T16:06:19.567Z,1021.03
2022-10-17T16:07:19.816Z,1021.06
2022-10-17T16:08:19.908Z,1021.00
2022-10-17T16:09:20.092Z,1021.10
2022-10-17T16:10:20.286Z,1021.11
2022-10-17T16:11:20.443Z,1021.08
2022-10-17T16:12:20.672Z,1021.13
2022-10-17T16:13:21.327Z,1021.10
2022-10-17T16:14:21.113Z,1021.13